Time;durP1;ratioP1;P1;durP2;ratioP2;P2;SDS_P1;SDS_P2;PMS_P1;PMS_P2;Temp;Humidity;BMP_temperature;BMP_pressure;BME280_temperature;BME280_humidity;BME280_pressure;Samples;Min_cycle;Max_cycle;Signal;HPM_P1;HPM_P2
2022/07/20 00:01:16;;;;;;;2.75;2.45;;;26.30;65.30;;;;;;5094692;28;20227;-58
2022/07/20 00:03:42;;;;;;;3.70;2.78;;;26.40;66.20;;;;;;5076454;28;20205;-57
2022/07/20 00:06:08;;;;;;;4.95;3.17;;;26.40;67.00;;;;;;5094825;28;20185;-57
2022/07/20 00:11:24;;;;;;;6.05;4.25;;;26.30;69.60;;;;;;5094528;28;20662;-57
2022/07/20 00:13:53;;;;;;;5.97;4.30;;;26.40;70.40;;;;;;5076177;28;20227;-57
2022/07/20 00:16:20;;;;;;;7.78;4.40;;;26.30;71.40;;;;;;5094656;28;20230;-58
2022/07/20 00:18:45;;;;;;;6.45;4.55;;;26.30;71.70;;;;;;5076381;28;20180;-57
2022/07/20 00:21:11;;;;;;;7.13;4.63;;;26.30;72.20;;;;;;5094488;28;20169;-57
2022/07/20 00:23:37;;;;;;;7.55;4.63;;;26.30;72.40;;;;;;5076267;28;20178;-57
2022/07/20 00:26:03;;;;;;;9.82;4.97;;;26.10;73.00;;;;;;5076169;28;20174;-58
2022/07/20 00:28:28;;;;;;;8.52;4.97;;;26.10;73.20;;;;;;5076362;28;20177;-57
2022/07/20 00:30:54;;;;;;;6.82;4.63;;;26.10;73.70;;;;;;5093605;28;20289;-58
2022/07/20 00:33:20;;;;;;;7.00;4.43;;;26.00;74.50;;;;;;5094018;28;20174;-57
2022/07/20 00:35:46;;;;;;;7.68;4.65;;;26.00;74.60;;;;;;5094193;28;20197;-56
2022/07/20 00:38:12;;;;;;;8.93;4.85;;;26.00;75.40;;;;;;5059523;28;20626;-57
2022/07/20 00:40:38;;;;;;;7.28;5.05;;;26.00;76.00;;;;;;5093985;28;20205;-57
2022/07/20 00:43:04;;;;;;;6.63;5.20;;;26.00;76.50;;;;;;5093872;28;20174;-57
2022/07/20 00:45:29;;;;;;;6.53;4.53;;;26.00;77.00;;;;;;5093895;28;20231;-58
2022/07/20 00:47:55;;;;;;;8.02;5.10;;;25.80;77.60;;;;;;5093910;28;20209;-57
2022/07/20 00:50:21;;;;;;;7.45;5.60;;;25.80;78.60;;;;;;5075727;28;20201;-55
2022/07/20 00:52:47;;;;;;;7.30;4.35;;;25.80;78.70;;;;;;5093967;28;20174;-57
2022/07/20 00:55:13;;;;;;;7.15;5.18;;;25.70;79.20;;;;;;5075604;28;20702;-57
2022/07/20 00:57:39;;;;;;;8.20;5.55;;;25.70;79.70;;;;;;5093645;28;20256;-57
2022/07/20 01:00:09;;;;;;;9.23;5.60;;;25.70;79.80;;;;;;5075737;28;20182;-57
2022/07/20 01:02:35;;;;;;;5.60;4.78;;;25.70;80.00;;;;;;5076099;28;20219;-57
2022/07/20 01:05:01;;;;;;;11.43;5.40;;;25.70;80.10;;;;;;5093839;28;20174;-57
2022/07/20 01:07:26;;;;;;;8.18;5.40;;;25.60;80.60;;;;;;5093721;28;20228;-57
2022/07/20 01:09:53;;;;;;;8.80;5.28;;;25.50;81.20;;;;;;5093260;28;20194;-57
2022/07/20 01:12:18;;;;;;;7.90;5.25;;;25.40;81.20;;;;;;5075473;28;20166;-57
2022/07/20 01:14:44;;;;;;;9.68;5.70;;;25.40;81.60;;;;;;5093737;28;20174;-57
2022/07/20 01:17:11;;;;;;;6.85;4.85;;;25.30;81.90;;;;;;5093890;28;20170;-56
2022/07/20 01:19:37;;;;;;;8.63;5.85;;;25.30;82.40;;;;;;5058980;28;20581;-57
2022/07/20 01:22:03;;;;;;;8.52;5.43;;;25.20;82.90;;;;;;5093545;28;20166;-57
2022/07/20 01:24:29;;;;;;;7.20;5.15;;;25.10;83.00;;;;;;5093263;28;20249;-57
2022/07/20 01:26:55;;;;;;;8.05;5.50;;;25.10;83.30;;;;;;5093352;28;20194;-56
2022/07/20 01:29:21;;;;;;;7.28;5.05;;;25.10;83.60;;;;;;5093688;28;20171;-56
2022/07/20 01:31:50;;;;;;;9.10;6.07;;;25.00;83.90;;;;;;5093413;28;20232;-57
2022/07/20 01:34:16;;;;;;;7.07;5.38;;;24.90;84.50;;;;;;5093409;28;20264;-57
2022/07/20 01:36:42;;;;;;;9.20;5.40;;;24.90;84.50;;;;;;5093362;28;20247;-57
2022/07/20 01:39:08;;;;;;;9.60;6.00;;;24.80;85.10;;;;;;5093183;28;20550;-58
2022/07/20 01:41:33;;;;;;;10.02;5.72;;;24.80;85.30;;;;;;5093639;28;20182;-57
2022/07/20 01:43:59;;;;;;;7.25;5.25;;;24.70;85.90;;;;;;5096375;28;20184;-58
2022/07/20 01:46:25;;;;;;;10.05;5.70;;;24.70;85.90;;;;;;5097322;28;20201;-58
2022/07/20 01:48:50;;;;;;;8.05;5.38;;;24.60;86.30;;;;;;5097302;28;20215;-57
2022/07/20 01:51:16;;;;;;;7.55;5.57;;;24.60;86.30;;;;;;5097250;28;20223;-58
2022/07/20 01:53:41;;;;;;;7.10;4.82;;;24.60;86.40;;;;;;5097084;28;20176;-57
2022/07/20 01:56:07;;;;;;;7.38;5.28;;;24.60;86.60;;;;;;5062704;28;20239;-58
2022/07/20 01:58:33;;;;;;;8.65;5.80;;;24.60;86.80;;;;;;5079005;28;20173;-57
2022/07/20 02:00:58;;;;;;;7.93;4.85;;;24.50;87.00;;;;;;5079208;28;20178;-57
2022/07/20 02:03:24;;;;;;;8.48;5.50;;;24.50;87.30;;;;;;5097185;28;20170;-56
2022/07/20 02:05:50;;;;;;;7.38;5.47;;;24.50;87.30;;;;;;5097113;28;20542;-57
2022/07/20 02:08:15;;;;;;;6.75;4.88;;;24.50;87.40;;;;;;5062155;28;20178;-57
2022/07/20 02:10:41;;;;;;;7.22;5.25;;;24.40;87.70;;;;;;5096920;28;20214;-58
2022/07/20 02:13:07;;;;;;;8.60;5.20;;;24.40;88.00;;;;;;5078934;28;20542;-58
2022/07/20 02:18:17;;;;;;;8.00;5.18;;;24.30;88.50;;;;;;5096969;28;20266;-57
2022/07/20 02:20:43;;;;;;;6.93;5.00;;;24.30;88.50;;;;;;5096624;28;20181;-58
2022/07/20 02:23:09;;;;;;;7.32;5.40;;;24.20;88.70;;;;;;5096534;28;20177;-58
2022/07/20 02:25:36;;;;;;;6.72;4.97;;;24.30;88.70;;;;;;5096737;28;20176;-58
2022/07/20 02:28:03;;;;;;;7.40;5.10;;;24.20;89.00;;;;;;5078470;28;20645;-58
2022/07/20 02:30:29;;;;;;;8.45;4.72;;;24.10;89.40;;;;;;5078335;28;20704;-58
2022/07/20 02:32:54;;;;;;;8.43;5.15;;;24.10;89.40;;;;;;5078540;28;20170;-58
2022/07/20 02:35:20;;;;;;;8.23;5.13;;;24.00;90.10;;;;;;5061696;28;20202;-57
2022/07/20 02:37:46;;;;;;;8.65;4.75;;;23.90;90.40;;;;;;5096458;28;20583;-57
2022/07/20 02:40:12;;;;;;;9.88;5.53;;;24.00;90.50;;;;;;5096213;28;20543;-57
2022/07/20 02:42:37;;;;;;;7.63;5.38;;;23.90;90.60;;;;;;5096431;28;20206;-57
2022/07/20 02:45:03;;;;;;;8.65;5.47;;;23.80;91.00;;;;;;5078220;28;20185;-57
2022/07/20 02:47:29;;;;;;;9.30;5.15;;;23.80;91.20;;;;;;5096052;28;20598;-57
2022/07/20 02:49:55;;;;;;;6.38;4.70;;;23.80;91.20;;;;;;5096038;28;20194;-57
2022/07/20 02:52:21;;;;;;;9.15;4.88;;;23.90;91.40;;;;;;5096004;28;20639;-56
2022/07/20 02:54:46;;;;;;;7.00;5.03;;;23.80;91.50;;;;;;5060681;28;20181;-56
2022/07/20 02:57:12;;;;;;;7.63;4.97;;;23.80;91.50;;;;;;5096379;28;20170;-57
2022/07/20 02:59:38;;;;;;;7.88;4.47;;;23.80;91.60;;;;;;5078312;28;20257;-57
2022/07/20 03:02:03;;;;;;;7.65;5.13;;;23.80;91.70;;;;;;5095952;28;20173;-57
2022/07/20 03:04:29;;;;;;;8.15;5.07;;;23.80;91.70;;;;;;5095837;28;20551;-57
2022/07/20 03:06:55;;;;;;;7.32;4.60;;;23.60;91.90;;;;;;5077744;28;20174;-57
2022/07/20 03:09:20;;;;;;;7.88;4.60;;;23.50;92.10;;;;;;5077392;28;20174;-57
2022/07/20 03:11:46;;;;;;;7.55;4.97;;;23.40;92.40;;;;;;5077839;28;20220;-57
2022/07/20 03:14:11;;;;;;;6.18;4.30;;;23.40;92.30;;;;;;5095605;28;20174;-57
2022/07/20 03:16:37;;;;;;;7.13;4.05;;;23.50;92.20;;;;;;5096058;28;20181;-57
2022/07/20 03:19:03;;;;;;;7.43;4.25;;;23.50;92.40;;;;;;5095576;28;20174;-57
2022/07/20 03:21:28;;;;;;;6.05;4.22;;;23.50;92.30;;;;;;5095704;28;20178;-57
2022/07/20 03:23:54;;;;;;;5.88;3.85;;;23.50;92.20;;;;;;5095678;28;20170;-58
2022/07/20 03:26:21;;;;;;;5.47;3.67;;;23.50;92.30;;;;;;5095563;28;20531;-57
2022/07/20 03:28:47;;;;;;;6.07;3.80;;;23.50;92.40;;;;;;5095382;28;20178;-57
2022/07/20 03:31:12;;;;;;;5.10;3.33;;;23.40;92.40;;;;;;5095218;28;20212;-58
2022/07/20 03:33:38;;;;;;;5.07;3.78;;;23.30;92.60;;;;;;5095342;28;20227;-57
2022/07/20 03:36:04;;;;;;;5.78;4.03;;;23.30;92.60;;;;;;5095145;28;20175;-57
2022/07/20 03:38:30;;;;;;;4.45;3.42;;;23.30;92.60;;;;;;5077236;28;20545;-57
2022/07/20 03:40:55;;;;;;;5.28;3.47;;;23.40;92.50;;;;;;5077142;28;20277;-57
2022/07/20 03:43:25;;;;;;;5.40;3.70;;;23.30;92.50;;;;;;5095403;28;20257;-56
2022/07/20 03:45:51;;;;;;;5.43;3.53;;;23.20;92.60;;;;;;5095057;28;20182;-57
2022/07/20 03:48:17;;;;;;;5.15;3.40;;;23.10;92.80;;;;;;5076837;28;20169;-56
2022/07/20 03:50:45;;;;;;;5.70;3.65;;;23.10;92.80;;;;;;5094801;28;20209;-57
2022/07/20 03:53:10;;;;;;;6.47;3.63;;;23.00;93.10;;;;;;5095102;28;20273;-57
2022/07/20 03:55:36;;;;;;;5.50;3.47;;;23.00;93.20;;;;;;5094862;28;20198;-57
2022/07/20 03:58:02;;;;;;;5.28;3.40;;;22.90;93.40;;;;;;5094759;28;20607;-57
2022/07/20 04:00:27;;;;;;;7.63;4.10;;;23.00;93.50;;;;;;5094797;28;20243;-57
2022/07/20 04:02:53;;;;;;;4.07;3.15;;;22.90;93.50;;;;;;5094938;28;20182;-57
2022/07/20 04:05:19;;;;;;;8.50;3.97;;;22.80;93.70;;;;;;5094595;28;20253;-58
2022/07/20 04:07:45;;;;;;;4.93;3.58;;;22.90;93.90;;;;;;5094764;28;20177;-57
2022/07/20 04:10:10;;;;;;;4.70;3.20;;;22.90;94.00;;;;;;5059647;28;20198;-57
2022/07/20 04:12:36;;;;;;;4.55;3.63;;;22.80;94.00;;;;;;5094540;28;20166;-57
2022/07/20 04:15:02;;;;;;;5.07;3.55;;;22.80;94.20;;;;;;5094507;28;20265;-57
2022/07/20 04:17:28;;;;;;;4.80;3.58;;;22.80;94.30;;;;;;5094398;28;20264;-57
2022/07/20 04:19:54;;;;;;;4.70;3.65;;;22.80;94.40;;;;;;5094351;28;20252;-57
2022/07/20 04:22:20;;;;;;;5.68;3.63;;;22.80;94.60;;;;;;5094528;28;20173;-57
2022/07/20 04:24:46;;;;;;;4.38;3.08;;;22.80;94.60;;;;;;5076187;28;20226;-57
2022/07/20 04:27:11;;;;;;;5.93;3.65;;;22.80;94.70;;;;;;5094331;28;20201;-57
2022/07/20 04:29:37;;;;;;;6.85;4.05;;;22.60;95.00;;;;;;5076163;28;20185;-57
2022/07/20 04:32:03;;;;;;;7.05;4.15;;;22.50;95.30;;;;;;5059252;28;20221;-57
2022/07/20 04:34:29;;;;;;;5.25;3.45;;;22.60;95.30;;;;;;5094088;28;20170;-58
2022/07/20 04:36:55;;;;;;;8.13;3.85;;;22.70;95.40;;;;;;5094262;28;20657;-57
2022/07/20 04:39:22;;;;;;;5.65;3.67;;;22.70;95.40;;;;;;5093988;28;20178;-56
2022/07/20 04:41:47;;;;;;;4.93;3.47;;;22.70;95.70;;;;;;5076040;28;20723;-57
2022/07/20 04:44:13;;;;;;;5.70;3.53;;;22.70;95.70;;;;;;5075804;28;20199;-57
2022/07/20 04:46:39;;;;;;;5.50;3.88;;;22.70;95.90;;;;;;5093885;28;20170;-57
2022/07/20 04:49:04;;;;;;;7.47;4.00;;;22.70;95.90;;;;;;5094223;28;20224;-57
2022/07/20 04:51:30;;;;;;;4.63;3.15;;;22.70;96.10;;;;;;5094179;28;20218;-57
2022/07/20 04:53:56;;;;;;;4.45;3.35;;;22.80;96.00;;;;;;5075729;28;20631;-57
2022/07/20 04:56:22;;;;;;;4.95;3.53;;;22.80;95.80;;;;;;5093362;28;20249;-57
2022/07/20 04:58:50;;;;;;;5.88;3.60;;;22.90;96.10;;;;;;5093362;28;20182;-57
2022/07/20 05:01:16;;;;;;;5.68;3.58;;;22.90;95.90;;;;;;5092474;28;20189;-58
2022/07/20 05:03:42;;;;;;;5.50;3.95;;;22.90;95.90;;;;;;5075449;28;20234;-57
2022/07/20 05:06:08;;;;;;;6.88;3.67;;;22.90;95.90;;;;;;5093094;28;20178;-57
2022/07/20 05:08:33;;;;;;;4.95;3.22;;;22.90;96.10;;;;;;5093634;28;20540;-56
2022/07/20 05:10:59;;;;;;;6.53;3.97;;;22.90;96.20;;;;;;5093593;28;20210;-57
2022/07/20 05:13:25;;;;;;;5.65;3.67;;;23.00;96.10;;;;;;5093684;28;20646;-57
2022/07/20 05:15:50;;;;;;;7.07;4.10;;;23.00;96.40;;;;;;5093256;28;20182;-57
2022/07/20 05:18:16;;;;;;;9.25;4.53;;;23.00;96.30;;;;;;5093005;28;20623;-57
2022/07/20 05:20:41;;;;;;;4.95;3.55;;;23.00;96.30;;;;;;5093094;28;20623;-57
2022/07/20 05:23:07;;;;;;;6.18;3.70;;;23.00;96.50;;;;;;5093399;28;20694;-57
2022/07/20 05:25:33;;;;;;;6.70;4.07;;;23.10;96.90;;;;;;5093272;28;20216;-57
2022/07/20 05:27:59;;;;;;;5.78;4.07;;;23.10;97.00;;;;;;5075183;28;20539;-57
2022/07/20 05:30:24;;;;;;;6.28;4.05;;;23.10;97.10;;;;;;5093131;28;20214;-58
2022/07/20 05:32:50;;;;;;;6.93;4.22;;;23.00;97.20;;;;;;5093424;28;20209;-57
2022/07/20 05:35:16;;;;;;;4.88;3.70;;;23.10;97.20;;;;;;5075241;28;20639;-56
2022/07/20 05:37:41;;;;;;;6.70;3.95;;;23.30;97.20;;;;;;5093032;28;20547;-57
2022/07/20 05:40:08;;;;;;;5.72;3.38;;;23.40;97.00;;;;;;5092752;28;20178;-57
2022/07/20 05:42:33;;;;;;;4.72;3.55;;;23.20;96.90;;;;;;5093113;28;20612;-57
2022/07/20 05:44:59;;;;;;;6.75;3.90;;;23.30;97.00;;;;;;5093002;28;20245;-57
2022/07/20 05:47:25;;;;;;;7.43;3.85;;;23.40;96.90;;;;;;5093171;28;20182;-56
2022/07/20 05:49:50;;;;;;;5.63;3.75;;;23.20;96.90;;;;;;5075403;28;20170;-57
2022/07/20 05:52:17;;;;;;;5.68;3.78;;;23.30;96.90;;;;;;5092979;28;20266;-57
2022/07/20 05:54:43;;;;;;;4.10;3.08;;;23.40;96.70;;;;;;5075343;28;20235;-58
2022/07/20 05:57:08;;;;;;;6.35;3.83;;;23.50;96.40;;;;;;5075255;28;20619;-58
2022/07/20 05:59:34;;;;;;;3.92;3.33;;;23.50;96.40;;;;;;5075144;28;20174;-57
2022/07/20 06:02:00;;;;;;;4.28;3.00;;;23.60;96.30;;;;;;5093137;28;20202;-57
2022/07/20 06:04:25;;;;;;;3.97;3.22;;;23.80;96.00;;;;;;5093180;28;20174;-59
2022/07/20 06:06:51;;;;;;;5.63;3.75;;;23.90;95.60;;;;;;5093091;28;20179;-60
2022/07/20 06:09:17;;;;;;;4.22;3.22;;;23.90;95.90;;;;;;5093290;28;20174;-61
2022/07/20 06:11:42;;;;;;;4.95;3.25;;;23.90;95.70;;;;;;5074752;28;20748;-60
2022/07/20 06:14:08;;;;;;;4.97;3.67;;;24.00;95.70;;;;;;5092815;28;20296;-59
2022/07/20 06:16:34;;;;;;;3.47;3.05;;;24.10;95.30;;;;;;5092885;28;20174;-61
2022/07/20 06:18:59;;;;;;;3.90;2.95;;;24.10;95.50;;;;;;5075179;28;20174;-60
2022/07/20 06:21:25;;;;;;;4.63;3.95;;;24.20;95.20;;;;;;5092986;28;20177;-60
2022/07/20 06:23:51;;;;;;;4.70;3.30;;;24.30;95.00;;;;;;5093010;28;20598;-60
2022/07/20 06:26:16;;;;;;;4.63;3.15;;;24.40;94.80;;;;;;5092886;28;20643;-60
2022/07/20 06:28:42;;;;;;;5.03;3.75;;;24.60;94.50;;;;;;5092938;28;20550;-59
2022/07/20 06:31:08;;;;;;;5.18;3.05;;;24.50;94.60;;;;;;5095671;28;20220;-60
2022/07/20 06:33:33;;;;;;;3.72;2.90;;;24.50;94.20;;;;;;5096649;28;20174;-60
2022/07/20 06:36:00;;;;;;;4.38;3.28;;;24.40;94.80;;;;;;5096458;28;20170;-60
2022/07/20 06:38:26;;;;;;;3.95;3.00;;;24.50;94.60;;;;;;5078426;28;20630;-53
2022/07/20 06:40:52;;;;;;;5.82;2.70;;;24.50;94.60;;;;;;5061848;28;20231;-60
2022/07/20 06:43:17;;;;;;;3.75;3.20;;;24.70;93.80;;;;;;5096347;28;20606;-60
2022/07/20 06:45:43;;;;;;;3.08;2.20;;;24.80;94.00;;;;;;5096102;28;20667;-61
2022/07/20 06:48:09;;;;;;;5.65;2.55;;;24.90;93.30;;;;;;5078320;28;20539;-61
2022/07/20 06:50:34;;;;;;;3.15;2.72;;;25.10;92.90;;;;;;5061378;28;20281;-61
2022/07/20 06:53:00;;;;;;;3.58;2.30;;;25.40;92.80;;;;;;5095769;28;20178;-59
2022/07/20 06:55:26;;;;;;;4.20;2.25;;;25.20;92.20;;;;;;5094712;28;20256;-60
2022/07/20 06:57:51;;;;;;;2.97;2.60;;;25.20;92.40;;;;;;5077787;28;20178;-59
2022/07/20 07:00:17;;;;;;;4.32;2.40;;;25.30;92.10;;;;;;5077865;28;20376;-61
2022/07/20 07:02:43;;;;;;;2.45;2.10;;;25.00;92.10;;;;;;5095880;28;20197;-61
2022/07/20 07:05:09;;;;;;;4.53;2.78;;;24.90;92.60;;;;;;5077569;28;20618;-61
2022/07/20 07:07:35;;;;;;;2.85;2.50;;;24.70;92.80;;;;;;5095817;28;20205;-60
2022/07/20 07:10:01;;;;;;;3.38;2.47;;;24.70;92.60;;;;;;5095160;28;20239;-59
2022/07/20 07:12:27;;;;;;;3.28;2.60;;;24.60;93.00;;;;;;5095625;28;20178;-60
2022/07/20 07:14:52;;;;;;;3.05;2.30;;;24.60;92.90;;;;;;5095461;28;20678;-61
2022/07/20 07:17:18;;;;;;;2.42;2.22;;;25.00;92.80;;;;;;5095915;28;20261;-60
2022/07/20 07:19:44;;;;;;;2.80;2.40;;;25.20;92.30;;;;;;5095440;28;20415;-60
2022/07/20 07:22:10;;;;;;;3.50;2.70;;;25.30;92.20;;;;;;5095296;28;20577;-59
2022/07/20 07:24:36;;;;;;;2.22;2.03;;;25.40;92.20;;;;;;5095092;28;20170;-58
2022/07/20 07:27:02;;;;;;;5.03;2.50;;;25.10;92.00;;;;;;5095145;28;20252;-60
2022/07/20 07:29:28;;;;;;;2.80;1.85;;;25.00;92.00;;;;;;5095304;28;20238;-60
2022/07/20 07:31:58;;;;;;;2.60;1.95;;;25.10;91.70;;;;;;5095194;28;20213;-61
2022/07/20 07:34:26;;;;;;;2.63;1.95;;;25.10;91.90;;;;;;5095327;28;20603;-61
2022/07/20 07:36:52;;;;;;;3.08;1.88;;;24.90;92.10;;;;;;5095394;28;20181;-61
2022/07/20 07:39:17;;;;;;;2.97;2.15;;;24.90;93.10;;;;;;5077565;28;20174;-60
2022/07/20 07:41:43;;;;;;;2.78;2.00;;;24.70;93.40;;;;;;5094682;28;20178;-60
2022/07/20 07:44:09;;;;;;;2.33;2.03;;;24.30;93.30;;;;;;5060551;28;20319;-61
2022/07/20 07:46:35;;;;;;;3.33;1.80;;;23.80;93.70;;;;;;5095280;28;20174;-61
2022/07/20 07:49:01;;;;;;;1.92;1.77;;;23.70;93.60;;;;;;5095026;28;20710;-60
2022/07/20 07:51:27;;;;;;;2.28;1.67;;;23.70;94.60;;;;;;5094975;28;20214;-60
2022/07/20 07:53:53;;;;;;;2.47;1.80;;;23.70;95.80;;;;;;5094995;28;20177;-60
2022/07/20 07:56:19;;;;;;;2.28;1.70;;;23.60;95.90;;;;;;5094848;28;20642;-60
2022/07/20 07:58:45;;;;;;;2.35;2.10;;;23.50;95.60;;;;;;5076860;28;20182;-61
2022/07/20 08:01:10;;;;;;;1.95;1.70;;;23.30;96.10;;;;;;5077060;28;20569;-60
2022/07/20 08:03:36;;;;;;;3.25;1.80;;;23.30;96.70;;;;;;5094804;28;20178;-60
2022/07/20 08:06:04;;;;;;;2.25;1.80;;;23.20;96.80;;;;;;5060300;28;20182;-60
2022/07/20 08:08:30;;;;;;;2.30;1.73;;;23.30;97.30;;;;;;5094580;28;20178;-62
2022/07/20 08:10:55;;;;;;;2.45;1.67;;;23.40;96.70;;;;;;5076533;28;20217;-61
2022/07/20 08:13:21;;;;;;;1.83;1.55;;;23.40;96.40;;;;;;5094298;28;20195;-61
2022/07/20 08:15:47;;;;;;;4.30;1.95;;;23.60;97.10;;;;;;5094747;28;20174;-61
2022/07/20 08:18:12;;;;;;;2.35;1.83;;;23.80;96.40;;;;;;5076549;28;20174;-59
2022/07/20 08:20:38;;;;;;;2.65;1.90;;;24.20;96.40;;;;;;5076265;28;20591;-60
2022/07/20 08:23:04;;;;;;;2.60;1.95;;;24.40;95.50;;;;;;5043094;28;20178;-61
2022/07/20 08:25:30;;;;;;;2.70;2.03;;;24.50;95.90;;;;;;5094273;28;20166;-61
2022/07/20 08:28:11;;;;;;;2.10;1.83;;;24.50;95.20;;;;;;5094512;28;20201;-61
2022/07/20 08:30:43;;;;;;;3.20;1.90;;;24.50;94.90;;;;;;5094289;28;20206;-60
2022/07/20 08:33:09;;;;;;;2.22;1.92;;;24.40;95.20;;;;;;5094280;28;20634;-61
2022/07/20 08:35:35;;;;;;;3.05;2.08;;;24.20;94.80;;;;;;5076328;28;20265;-61
2022/07/20 08:38:01;;;;;;;3.40;2.25;;;24.10;95.30;;;;;;5094094;28;20176;-60
2022/07/20 08:40:28;;;;;;;2.65;1.95;;;24.00;96.30;;;;;;5094431;28;20545;-61
2022/07/20 08:42:54;;;;;;;2.80;2.05;;;23.90;96.00;;;;;;5094332;28;20630;-61
2022/07/20 08:45:20;;;;;;;2.47;1.80;;;24.00;96.50;;;;;;5094070;28;20178;-61
2022/07/20 08:47:48;;;;;;;2.97;2.00;;;24.00;96.50;;;;;;5075890;28;20174;-61
2022/07/20 08:50:13;;;;;;;3.05;1.95;;;24.10;95.50;;;;;;5093820;28;20173;-60
2022/07/20 08:52:39;;;;;;;2.85;1.90;;;23.90;95.80;;;;;;5075025;28;20178;-60
2022/07/20 08:55:06;;;;;;;3.97;2.15;;;24.00;96.40;;;;;;5092738;28;20170;-61
2022/07/20 08:57:32;;;;;;;3.45;2.17;;;24.00;96.30;;;;;;5075201;28;20209;-62
2022/07/20 08:59:58;;;;;;;3.47;2.33;;;23.80;96.50;;;;;;5093581;28;20639;-62
2022/07/20 09:02:24;;;;;;;2.00;1.88;;;23.70;96.80;;;;;;5093789;28;20504;-62
2022/07/20 09:04:55;;;;;;;2.72;2.28;;;23.80;96.90;;;;;;5093663;28;20178;-61
2022/07/20 09:07:40;;;;;;;2.08;1.67;;;23.90;96.60;;;;;;5093655;28;20170;-61
2022/07/20 09:10:09;;;;;;;1.83;1.70;;;23.90;96.40;;;;;;5093672;28;20194;-61
2022/07/20 09:13:12;;;;;;;5.13;2.40;;;23.80;96.50;;;;;;5093440;28;20198;-61
2022/07/20 09:15:44;;;;;;;3.35;1.77;;;24.00;96.60;;;;;;5051069;28;20181;-60
2022/07/20 09:18:14;;;;;;;4.55;2.30;;;24.00;97.00;;;;;;5093689;28;20200;-61
2022/07/20 09:20:49;;;;;;;4.18;2.13;;;23.80;96.70;;;;;;5093632;28;20176;-61
2022/07/20 09:23:22;;;;;;;3.90;2.28;;;23.80;97.10;;;;;;5093549;28;20642;-61
2022/07/20 09:25:58;;;;;;;3.47;1.85;;;23.80;97.20;;;;;;5093394;28;20635;-61
2022/07/20 09:28:37;;;;;;;1.83;1.40;;;23.80;99.30;;;;;;5075423;28;20177;-61
2022/07/20 09:31:08;;;;;;;2.22;1.90;;;23.90;99.80;;;;;;5093640;28;20205;-61
2022/07/20 09:33:34;;;;;;;3.38;1.92;;;23.80;99.90;;;;;;5093499;28;20253;-61
2022/07/20 09:36:03;;;;;;;3.22;1.63;;;23.70;99.20;;;;;;5075348;28;20239;-61
2022/07/20 09:38:41;;;;;;;2.15;1.85;;;23.60;99.90;;;;;;5093216;28;20694;-61
2022/07/20 09:41:28;;;;;;;2.67;1.90;;;23.80;99.90;;;;;;5075451;28;20182;-61
2022/07/20 09:43:56;;;;;;;2.75;2.08;;;24.30;99.20;;;;;;5093173;28;20527;-61
2022/07/20 09:46:24;;;;;;;2.88;2.03;;;24.30;98.60;;;;;;5093171;28;20669;-61
2022/07/20 09:48:51;;;;;;;2.90;1.80;;;24.30;98.70;;;;;;5093093;28;20211;-61
2022/07/20 09:51:18;;;;;;;2.95;2.10;;;24.50;98.50;;;;;;5093420;28;20225;-60
2022/07/20 09:53:44;;;;;;;2.30;1.85;;;24.50;97.90;;;;;;5093577;28;20174;-60
2022/07/20 09:56:10;;;;;;;2.40;2.00;;;24.60;97.60;;;;;;5075130;28;20227;-61
2022/07/20 09:58:37;;;;;;;2.13;1.60;;;24.60;97.30;;;;;;5093180;28;20177;-60
2022/07/20 10:01:03;;;;;;;2.95;1.85;;;24.50;97.60;;;;;;5093097;28;20246;-60
2022/07/20 10:03:29;;;;;;;2.20;1.80;;;24.50;97.60;;;;;;5058064;28;20182;-60
2022/07/20 10:05:55;;;;;;;1.98;1.73;;;24.70;97.90;;;;;;5079135;28;20226;-61
2022/07/20 10:08:23;;;;;;;2.45;2.10;;;25.10;97.90;;;;;;5097300;28;20209;-61
2022/07/20 10:10:48;;;;;;;2.95;1.60;;;25.30;97.50;;;;;;5097019;28;20300;-59
2022/07/20 10:13:14;;;;;;;2.45;1.85;;;25.20;97.20;;;;;;5097125;28;20198;-60
2022/07/20 10:15:53;;;;;;;2.33;1.60;;;25.50;96.70;;;;;;5096847;28;20542;-61
2022/07/20 10:18:19;;;;;;;2.72;2.03;;;25.80;96.40;;;;;;5097123;28;20252;-61
2022/07/20 10:20:45;;;;;;;3.33;1.77;;;26.00;96.10;;;;;;5096931;28;20253;-61
2022/07/20 10:23:19;;;;;;;2.55;2.03;;;26.00;95.30;;;;;;5078736;28;20201;-61
2022/07/20 10:25:46;;;;;;;3.15;2.00;;;26.00;95.20;;;;;;5096669;28;20169;-61
2022/07/20 10:28:33;;;;;;;2.28;1.80;;;26.00;95.50;;;;;;5078489;28;20262;-61
2022/07/20 10:31:16;;;;;;;2.70;1.70;;;26.40;95.10;;;;;;5096710;28;20551;-61
2022/07/20 10:33:43;;;;;;;2.78;1.90;;;26.40;95.30;;;;;;5096568;28;20264;-61
2022/07/20 10:38:57;;;;;;;2.40;1.90;;;26.00;95.50;;;;;;5096733;28;20182;-61
2022/07/20 10:41:31;;;;;;;2.83;2.10;;;26.10;96.30;;;;;;5096510;28;20182;-61
2022/07/20 10:44:29;;;;;;;2.55;2.15;;;26.50;95.60;;;;;;5096367;28;20227;-61
2022/07/20 10:46:55;;;;;;;3.05;1.80;;;26.60;95.10;;;;;;5051485;28;20182;-61
2022/07/20 10:50:00;;;;;;;3.63;1.92;;;26.80;95.20;;;;;;5096017;28;20527;-61
2022/07/20 10:52:31;;;;;;;2.70;2.00;;;26.90;94.90;;;;;;5095892;28;20256;-60
2022/07/20 10:54:57;;;;;;;3.55;2.38;;;27.10;95.10;;;;;;5096207;28;20211;-61
2022/07/20 10:57:24;;;;;;;4.72;2.08;;;27.30;94.50;;;;;;5096088;28;20174;-61
2022/07/20 11:00:01;;;;;;;6.47;2.42;;;27.40;94.30;;;;;;5077991;28;20203;-60
2022/07/20 11:02:27;;;;;;;3.40;2.67;;;27.50;93.90;;;;;;5096080;28;20685;-61
2022/07/20 11:04:52;;;;;;;3.95;1.80;;;27.40;93.20;;;;;;5095793;28;20178;-61
2022/07/20 11:07:32;;;;;;;2.60;2.00;;;27.20;93.60;;;;;;5077606;28;20200;-64
2022/07/20 11:09:59;;;;;;;2.30;2.00;;;27.00;93.60;;;;;;5077701;28;20195;-61
2022/07/20 11:12:29;;;;;;;2.78;2.00;;;27.00;94.20;;;;;;5095745;28;20232;-60
2022/07/20 11:14:56;;;;;;;2.67;1.88;;;27.10;94.10;;;;;;5095510;28;20175;-61
2022/07/20 11:17:22;;;;;;;3.50;2.10;;;27.40;94.00;;;;;;5095387;28;20223;-61
2022/07/20 11:19:48;;;;;;;4.38;2.38;;;27.40;93.70;;;;;;5061001;28;20182;-61
2022/07/20 11:22:14;;;;;;;2.90;2.00;;;27.30;93.00;;;;;;5095560;28;20185;-61
2022/07/20 11:24:40;;;;;;;1.95;1.73;;;27.00;93.30;;;;;;5095002;28;20227;-61
2022/07/20 11:27:14;;;;;;;2.90;2.30;;;27.00;93.10;;;;;;5095606;28;20178;-61
2022/07/20 11:29:48;;;;;;;2.95;2.17;;;26.80;93.20;;;;;;5095484;28;20311;-61
2022/07/20 11:32:13;;;;;;;4.38;2.10;;;26.70;93.70;;;;;;5095382;28;20205;-60
2022/07/20 11:34:58;;;;;;;2.35;2.08;;;26.60;94.50;;;;;;5077405;28;20170;-61
2022/07/20 11:37:25;;;;;;;3.55;2.42;;;26.80;94.20;;;;;;5077368;28;20185;-60
2022/07/20 11:39:51;;;;;;;2.92;2.30;;;26.90;94.30;;;;;;5095326;28;20178;-60
2022/07/20 11:42:17;;;;;;;3.40;2.47;;;26.80;93.80;;;;;;5095356;28;20546;-61
2022/07/20 11:45:01;;;;;;;3.22;2.20;;;26.70;93.50;;;;;;5095241;28;20174;-61
2022/07/20 11:47:27;;;;;;;3.75;2.30;;;26.40;94.40;;;;;;5095071;28;20177;-60
2022/07/20 11:50:07;;;;;;;4.07;2.22;;;25.80;94.80;;;;;;5094926;28;20201;-61
2022/07/20 11:52:40;;;;;;;3.67;2.60;;;25.80;95.70;;;;;;5095039;28;20300;-61
2022/07/20 11:55:07;;;;;;;3.40;2.60;;;25.60;95.40;;;;;;5095038;28;20184;-61
2022/07/20 11:57:32;;;;;;;2.08;1.83;;;25.40;95.80;;;;;;5094901;28;20170;-60
2022/07/20 11:59:58;;;;;;;3.80;2.70;;;25.60;95.90;;;;;;5094801;28;20189;-61
2022/07/20 12:02:25;;;;;;;4.60;2.58;;;25.60;96.10;;;;;;5059917;28;20178;-59
2022/07/20 12:04:51;;;;;;;3.78;2.40;;;25.80;95.90;;;;;;5094657;28;20576;-61
2022/07/20 12:10:16;;;;;;;2.53;2.33;;;25.80;96.00;;;;;;5094883;28;20263;-60
2022/07/20 12:12:44;;;;;;;3.38;2.33;;;25.80;96.10;;;;;;5094508;28;20581;-60
2022/07/20 12:15:10;;;;;;;3.28;2.55;;;26.00;96.20;;;;;;5094670;28;20184;-61
2022/07/20 12:17:50;;;;;;;3.25;2.40;;;26.20;96.40;;;;;;5094572;28;20172;-62
2022/07/20 12:20:16;;;;;;;3.47;2.20;;;26.10;95.80;;;;;;5094478;28;20172;-61
2022/07/20 12:22:56;;;;;;;4.28;2.42;;;26.20;95.70;;;;;;5094320;28;20540;-61
2022/07/20 12:25:32;;;;;;;3.70;2.60;;;26.50;95.50;;;;;;5094340;28;20249;-61
2022/07/20 12:27:58;;;;;;;3.70;2.03;;;26.60;95.20;;;;;;5075475;28;20177;-61
2022/07/20 12:30:37;;;;;;;2.88;2.45;;;27.10;94.50;;;;;;5076495;28;20169;-59
2022/07/20 12:33:05;;;;;;;4.45;2.90;;;27.00;93.50;;;;;;5094262;28;20177;-60
2022/07/20 12:35:30;;;;;;;4.30;2.90;;;26.70;93.90;;;;;;5094076;28;20174;-63
2022/07/20 12:37:57;;;;;;;3.05;2.30;;;26.90;94.00;;;;;;5093931;28;20731;-60
2022/07/20 12:40:35;;;;;;;2.97;2.22;;;26.70;94.00;;;;;;5075897;28;20185;-61
2022/07/20 12:43:02;;;;;;;2.78;2.30;;;26.50;94.20;;;;;;5093980;28;20645;-61
2022/07/20 12:45:27;;;;;;;5.13;2.60;;;26.40;94.70;;;;;;5093925;28;20662;-57
2022/07/20 12:47:53;;;;;;;3.15;2.53;;;26.20;94.90;;;;;;5075719;28;20170;-60
2022/07/20 12:50:19;;;;;;;3.15;2.70;;;26.10;95.10;;;;;;5093732;28;20511;-60
2022/07/20 12:52:45;;;;;;;3.08;2.38;;;25.90;95.20;;;;;;5075779;28;20257;-60
2022/07/20 12:55:10;;;;;;;2.55;2.22;;;25.60;95.60;;;;;;5075834;28;20178;-61
2022/07/20 12:57:36;;;;;;;3.63;2.50;;;25.50;95.80;;;;;;5093756;28;20177;-61